Time;durP1;ratioP1;P1;durP2;ratioP2;P2;SDS_P1;SDS_P2;PMS_P1;PMS_P2;Temp;Humidity;BMP_temperature;BMP_pressure;BME280_temperature;BME280_humidity;BME280_pressure;Samples;Min_cycle;Max_cycle;Signal;HPM_P1;HPM_P2
2024/03/13 05:00:57;;;;;;;23.58;9.93;;;4.20;99.90;;;;;;5608475;23;20303;-68
2024/03/13 05:03:24;;;;;;;22.58;9.50;;;4.30;99.90;;;;;;4898191;29;20275;-69
2024/03/13 05:05:51;;;;;;;33.33;12.85;;;4.20;99.90;;;;;;4921583;29;20198;-70
2024/03/13 05:08:17;;;;;;;28.42;11.57;;;4.20;99.90;;;;;;4912174;29;20206;-70
2024/03/13 05:10:44;;;;;;;12.38;9.02;;;4.10;99.90;;;;;;4891705;29;20242;-69
2024/03/13 05:13:13;;;;;;;14.05;8.70;;;4.10;99.90;;;;;;4881399;29;20262;-70
2024/03/13 05:15:40;;;;;;;20.80;9.15;;;4.00;99.90;;;;;;4881400;29;20260;-70
2024/03/13 05:18:07;;;;;;;17.13;10.00;;;4.00;99.90;;;;;;4881673;29;20215;-70
2024/03/13 05:20:34;;;;;;;15.52;9.05;;;3.90;99.90;;;;;;4881343;29;20234;-69
2024/03/13 05:23:01;;;;;;;25.13;9.25;;;3.90;99.90;;;;;;4880531;29;20213;-69
2024/03/13 05:25:28;;;;;;;23.65;10.05;;;3.80;99.90;;;;;;4880905;29;20204;-70
2024/03/13 05:27:56;;;;;;;17.58;9.20;;;3.80;99.90;;;;;;4881719;29;20215;-70
2024/03/13 05:30:24;;;;;;;12.27;6.88;;;3.70;99.90;;;;;;4881033;29;20259;-69
2024/03/13 05:32:51;;;;;;;19.63;9.80;;;3.70;99.90;;;;;;4878974;29;20645;-68
2024/03/13 05:35:18;;;;;;;16.80;9.45;;;3.70;99.90;;;;;;4881234;29;20699;-70
2024/03/13 05:37:45;;;;;;;17.55;9.60;;;3.60;99.90;;;;;;4881504;29;20294;-70
2024/03/13 05:40:16;;;;;;;16.52;7.45;;;3.60;99.90;;;;;;4880041;29;20238;-71
2024/03/13 05:42:43;;;;;;;14.07;8.73;;;3.60;99.90;;;;;;4882604;29;20211;-71
2024/03/13 05:45:10;;;;;;;16.88;8.60;;;3.60;99.90;;;;;;4880663;29;20278;-72
2024/03/13 05:47:37;;;;;;;15.63;8.90;;;3.60;99.90;;;;;;4880279;29;20209;-70
2024/03/13 05:50:05;;;;;;;20.92;8.57;;;3.60;99.90;;;;;;4881795;29;20203;-71
2024/03/13 05:52:31;;;;;;;15.05;9.90;;;3.60;99.90;;;;;;4881352;29;20232;-70
2024/03/13 05:54:58;;;;;;;11.52;6.13;;;3.50;99.90;;;;;;4880484;29;20207;-71
2024/03/13 05:57:25;;;;;;;19.55;9.65;;;3.40;99.90;;;;;;4881369;29;20207;-71
2024/03/13 05:59:52;;;;;;;19.80;8.57;;;3.40;99.90;;;;;;4881713;29;20218;-72
2024/03/13 06:02:19;;;;;;;14.63;7.18;;;3.40;99.90;;;;;;4879840;29;20246;-71
2024/03/13 06:04:46;;;;;;;16.67;7.05;;;3.40;99.90;;;;;;4880459;29;20215;-71
2024/03/13 06:07:13;;;;;;;7.30;6.55;;;3.40;99.90;;;;;;4879711;29;20211;-70
2024/03/13 06:09:40;;;;;;;11.07;7.07;;;3.50;99.90;;;;;;4877995;29;20663;-71
2024/03/13 06:12:07;;;;;;;23.00;9.10;;;3.50;99.90;;;;;;4880178;29;20237;-71
2024/03/13 06:14:34;;;;;;;14.35;7.57;;;3.50;99.90;;;;;;4880499;29;20213;-71
2024/03/13 06:17:01;;;;;;;17.77;10.27;;;3.50;99.90;;;;;;4878642;29;20263;-71
2024/03/13 06:19:28;;;;;;;17.58;9.70;;;3.50;99.90;;;;;;4878720;29;20203;-72
2024/03/13 06:21:54;;;;;;;11.48;7.40;;;3.60;99.90;;;;;;4880797;29;20272;-71
2024/03/13 06:24:30;;;;;;;11.25;6.68;;;3.60;99.90;;;;;;4879287;29;20208;-72
2024/03/13 06:26:58;;;;;;;22.40;10.77;;;3.70;99.90;;;;;;4881668;29;20207;-70
2024/03/13 06:32:10;;;;;;;14.68;10.18;;;3.70;99.90;;;;;;4882811;29;20274;-72
2024/03/13 06:34:38;;;;;;;13.27;6.70;;;3.80;99.90;;;;;;4877276;29;20283;-71
2024/03/13 06:37:05;;;;;;;27.45;8.57;;;3.80;99.90;;;;;;4881215;29;20567;-71
2024/03/13 06:39:31;;;;;;;18.98;11.25;;;3.90;99.90;;;;;;4878462;29;20203;-72
2024/03/13 06:41:58;;;;;;;20.42;10.10;;;4.00;99.90;;;;;;4879156;29;20238;-71
2024/03/13 06:44:26;;;;;;;14.75;8.52;;;4.10;99.90;;;;;;4892213;29;20222;-71
2024/03/13 06:46:52;;;;;;;21.92;12.60;;;4.20;99.90;;;;;;4879464;29;20211;-70
2024/03/13 06:49:19;;;;;;;22.30;10.93;;;4.20;99.90;;;;;;4879126;29;20219;-70
2024/03/13 06:51:46;;;;;;;19.63;9.57;;;4.30;99.90;;;;;;4880073;29;20230;-70
2024/03/13 06:54:13;;;;;;;15.05;9.10;;;4.30;99.90;;;;;;4879187;29;20222;-71
2024/03/13 06:56:40;;;;;;;17.80;10.00;;;4.40;99.90;;;;;;4880046;29;20696;-71
2024/03/13 06:59:07;;;;;;;25.67;9.20;;;4.50;99.90;;;;;;4877072;29;20206;-71
2024/03/13 07:01:36;;;;;;;26.80;11.43;;;4.60;99.90;;;;;;4876890;29;20236;-71
2024/03/13 07:04:03;;;;;;;18.85;9.32;;;4.70;99.90;;;;;;4879075;29;20755;-71
2024/03/13 07:06:30;;;;;;;25.40;10.85;;;4.80;99.90;;;;;;4878039;29;20215;-71
2024/03/13 07:08:57;;;;;;;24.58;11.23;;;4.90;99.90;;;;;;4878234;29;20246;-72
2024/03/13 07:11:24;;;;;;;20.83;10.60;;;4.90;99.90;;;;;;4894702;29;20722;-71
2024/03/13 07:13:51;;;;;;;22.55;11.38;;;4.90;99.90;;;;;;4878543;29;20299;-71
2024/03/13 07:16:19;;;;;;;26.17;10.27;;;4.90;99.90;;;;;;4875624;29;20682;-71
2024/03/13 07:18:46;;;;;;;20.42;11.65;;;5.00;99.90;;;;;;4880833;29;20205;-71
2024/03/13 07:21:13;;;;;;;35.67;12.63;;;5.10;99.90;;;;;;4876413;29;20314;-71
2024/03/13 07:23:40;;;;;;;23.42;10.82;;;5.20;99.90;;;;;;4878017;29;20228;-71
2024/03/13 07:26:08;;;;;;;26.98;11.95;;;5.30;99.90;;;;;;4878754;29;20219;-71
2024/03/13 07:28:37;;;;;;;30.20;13.00;;;5.30;99.90;;;;;;4878436;29;20503;-72
2024/03/13 07:31:04;;;;;;;31.27;12.68;;;5.40;99.90;;;;;;4879065;29;20237;-71
2024/03/13 07:33:31;;;;;;;42.83;20.20;;;5.40;99.90;;;;;;4877818;29;20204;-71
2024/03/13 07:35:58;;;;;;;28.00;13.05;;;5.40;99.90;;;;;;4899436;29;20620;-71
2024/03/13 07:38:25;;;;;;;33.97;15.73;;;5.50;99.90;;;;;;4879295;29;20773;-70
2024/03/13 07:40:52;;;;;;;19.73;11.25;;;5.50;99.90;;;;;;4879356;29;20229;-70
2024/03/13 07:43:19;;;;;;;22.92;11.75;;;5.60;99.90;;;;;;4876426;29;20236;-71
2024/03/13 07:45:46;;;;;;;22.45;11.57;;;5.60;99.90;;;;;;4877433;29;20210;-70
2024/03/13 07:48:13;;;;;;;19.20;9.40;;;5.60;99.90;;;;;;4878790;29;20216;-70
2024/03/13 07:50:39;;;;;;;22.70;12.70;;;5.80;99.90;;;;;;4878571;29;20234;-70
2024/03/13 07:53:06;;;;;;;20.90;12.35;;;5.80;99.90;;;;;;4875701;29;20210;-69
2024/03/13 07:55:33;;;;;;;27.73;11.88;;;5.90;99.90;;;;;;4876065;29;20214;-71
2024/03/13 07:58:02;;;;;;;22.75;11.80;;;6.00;99.90;;;;;;4878087;29;20222;-70
2024/03/13 08:00:29;;;;;;;24.92;9.82;;;6.00;99.90;;;;;;4876321;29;20240;-70
2024/03/13 08:02:56;;;;;;;25.30;11.07;;;6.10;99.90;;;;;;4876106;29;20225;-70
2024/03/13 08:05:23;;;;;;;24.88;12.85;;;6.20;99.90;;;;;;4876270;29;20215;-70
2024/03/13 08:07:50;;;;;;;26.50;12.55;;;6.30;99.90;;;;;;4879586;29;20207;-70
2024/03/13 08:10:18;;;;;;;19.98;10.52;;;6.40;99.90;;;;;;4877527;29;20218;-71
2024/03/13 08:12:45;;;;;;;27.27;13.52;;;6.50;99.90;;;;;;4893547;29;20262;-71
2024/03/13 08:15:12;;;;;;;22.90;13.02;;;6.60;99.90;;;;;;4876559;29;20268;-70
2024/03/13 08:17:39;;;;;;;21.73;13.23;;;6.70;99.90;;;;;;4875399;29;20214;-71
2024/03/13 08:20:07;;;;;;;21.40;11.85;;;6.80;99.90;;;;;;4875527;29;20225;-71
2024/03/13 08:22:34;;;;;;;23.85;10.65;;;7.00;99.90;;;;;;4874147;29;20231;-70
2024/03/13 08:25:00;;;;;;;21.73;10.30;;;7.10;99.90;;;;;;4873784;29;20207;-68
2024/03/13 08:27:27;;;;;;;31.08;12.65;;;7.30;99.90;;;;;;4876459;29;20207;-69
2024/03/13 08:29:54;;;;;;;32.90;14.27;;;7.50;99.90;;;;;;4875908;29;20219;-71
2024/03/13 08:32:21;;;;;;;30.70;11.85;;;7.70;99.90;;;;;;4879641;29;20227;-71
2024/03/13 08:34:49;;;;;;;21.17;9.32;;;7.90;99.90;;;;;;4870743;29;20271;-70
2024/03/13 08:37:16;;;;;;;16.10;9.43;;;8.00;99.90;;;;;;4878712;29;20217;-71
2024/03/13 08:39:43;;;;;;;17.90;10.05;;;8.10;99.90;;;;;;4880601;29;20207;-70
2024/03/13 08:42:10;;;;;;;24.33;11.40;;;8.30;99.90;;;;;;4878718;29;20250;-70
2024/03/13 08:44:37;;;;;;;24.67;10.93;;;8.40;99.90;;;;;;4875811;29;20211;-71
2024/03/13 08:47:04;;;;;;;20.60;10.25;;;8.50;99.90;;;;;;4882253;29;20311;-70
2024/03/13 08:49:31;;;;;;;17.80;9.68;;;8.60;99.90;;;;;;4880537;29;20203;-71
2024/03/13 08:51:58;;;;;;;17.58;9.48;;;8.70;99.90;;;;;;4879292;29;20261;-71
2024/03/13 08:54:25;;;;;;;19.98;10.30;;;8.80;99.90;;;;;;4879889;29;20207;-71
2024/03/13 08:56:52;;;;;;;23.10;9.05;;;8.90;99.90;;;;;;4889640;29;20237;-71
2024/03/13 08:59:19;;;;;;;22.27;10.77;;;9.00;99.90;;;;;;4893269;29;20220;-69
2024/03/13 09:01:44;;;;;;;19.95;10.15;;;9.20;99.90;;;;;;4880498;29;20265;-71
2024/03/13 09:04:11;;;;;;;18.20;10.03;;;9.20;99.90;;;;;;4879568;29;20275;-71
2024/03/13 09:06:39;;;;;;;18.13;9.75;;;9.30;99.90;;;;;;4880016;29;20493;-71
2024/03/13 09:09:05;;;;;;;3.40;2.72;;;9.30;99.90;;;;;;4876379;29;20207;-71
2024/03/13 09:11:33;;;;;;;15.57;9.70;;;9.40;99.90;;;;;;4881833;29;20229;-71
2024/03/13 09:14:01;;;;;;;15.30;8.85;;;9.50;99.90;;;;;;4880864;29;20680;-71
2024/03/13 09:16:29;;;;;;;20.02;8.05;;;9.50;99.90;;;;;;4895470;29;20222;-71
2024/03/13 09:18:56;;;;;;;14.73;7.40;;;9.60;99.90;;;;;;4885339;29;20217;-71
2024/03/13 09:21:23;;;;;;;15.38;9.45;;;9.70;99.90;;;;;;4882858;29;20777;-69
2024/03/13 09:23:52;;;;;;;16.30;8.55;;;9.80;99.90;;;;;;4877671;29;20403;-69
2024/03/13 09:26:19;;;;;;;18.17;10.63;;;9.80;99.90;;;;;;4881223;29;20237;-70
2024/03/13 09:28:46;;;;;;;12.55;8.45;;;10.00;99.90;;;;;;4881949;29;20263;-70
2024/03/13 09:31:13;;;;;;;14.55;7.00;;;10.10;99.90;;;;;;4882813;29;20267;-70
2024/03/13 09:33:40;;;;;;;14.93;8.15;;;10.10;99.90;;;;;;4882658;29;20199;-70
2024/03/13 09:36:08;;;;;;;11.90;7.45;;;10.10;99.90;;;;;;4884239;29;20236;-70
2024/03/13 09:38:35;;;;;;;13.80;6.95;;;10.10;99.90;;;;;;4878622;29;20211;-70
2024/03/13 09:41:05;;;;;;;18.30;7.97;;;10.30;99.90;;;;;;4878524;29;20235;-69
2024/03/13 09:43:32;;;;;;;11.82;7.30;;;10.40;99.90;;;;;;4876889;29;20247;-70
2024/03/13 09:45:59;;;;;;;14.68;8.50;;;10.60;99.90;;;;;;4892063;29;20369;-69
2024/03/13 09:48:26;;;;;;;19.45;10.20;;;10.60;99.90;;;;;;4879872;29;20226;-70
2024/03/13 09:50:53;;;;;;;12.65;8.43;;;10.70;99.90;;;;;;4879678;29;20247;-70
2024/03/13 09:53:21;;;;;;;15.57;7.93;;;10.60;99.90;;;;;;4879631;29;20203;-70
2024/03/13 09:55:48;;;;;;;12.25;6.10;;;10.70;99.90;;;;;;4879127;29;20554;-70
2024/03/13 09:58:16;;;;;;;10.48;6.85;;;10.70;99.90;;;;;;4880131;29;20267;-70
2024/03/13 10:00:43;;;;;;;7.83;4.57;;;10.70;99.90;;;;;;4879198;29;20238;-70
2024/03/13 10:03:13;;;;;;;14.03;5.87;;;10.60;99.90;;;;;;4879818;29;20502;-70
2024/03/13 10:05:40;;;;;;;11.55;6.60;;;10.60;99.90;;;;;;4880292;29;20495;-70
2024/03/13 10:08:07;;;;;;;16.43;8.60;;;10.70;99.90;;;;;;4883561;29;20211;-70
2024/03/13 10:10:35;;;;;;;13.63;8.93;;;10.70;99.90;;;;;;4894145;29;20487;-69
2024/03/13 10:13:02;;;;;;;13.63;9.00;;;10.80;99.90;;;;;;4880284;29;20518;-69
2024/03/13 10:15:30;;;;;;;14.23;6.70;;;10.80;99.90;;;;;;4880410;29;20467;-69
2024/03/13 10:17:58;;;;;;;8.30;5.23;;;10.70;99.90;;;;;;4881337;29;20463;-70
2024/03/13 10:20:25;;;;;;;10.40;6.60;;;10.70;99.90;;;;;;4880243;29;20500;-70
2024/03/13 10:22:53;;;;;;;11.27;6.43;;;10.70;99.90;;;;;;4879730;29;20475;-70
2024/03/13 10:25:20;;;;;;;9.15;6.03;;;10.80;99.90;;;;;;4878462;29;20478;-70
2024/03/13 10:27:47;;;;;;;10.57;5.85;;;10.80;99.90;;;;;;4873997;29;20580;-69
2024/03/13 10:30:15;;;;;;;15.63;7.57;;;10.80;99.90;;;;;;4879918;29;20248;-69
2024/03/13 10:32:42;;;;;;;11.38;5.47;;;10.90;99.90;;;;;;4880444;29;20499;-69
2024/03/13 10:35:10;;;;;;;7.80;4.57;;;10.90;99.90;;;;;;4880451;29;20226;-69
2024/03/13 10:37:37;;;;;;;16.00;6.50;;;10.90;99.90;;;;;;4877675;29;20539;-69
2024/03/13 10:40:05;;;;;;;9.73;6.05;;;10.80;99.90;;;;;;4879083;29;20235;-70
2024/03/13 10:42:32;;;;;;;8.63;4.77;;;10.80;99.90;;;;;;4897101;29;20227;-69
2024/03/13 10:44:59;;;;;;;9.70;6.43;;;10.90;99.90;;;;;;4879017;29;20491;-69
2024/03/13 10:47:27;;;;;;;6.80;5.97;;;11.00;99.90;;;;;;4878376;29;20471;-69
2024/03/13 10:49:54;;;;;;;7.30;4.93;;;11.20;99.90;;;;;;4878693;29;20463;-69
2024/03/13 10:52:21;;;;;;;11.10;4.70;;;11.30;99.90;;;;;;4878025;29;20484;-69
2024/03/13 10:54:48;;;;;;;10.13;6.10;;;11.40;99.90;;;;;;4878900;29;20495;-69
2024/03/13 10:57:18;;;;;;;9.23;6.60;;;11.40;99.90;;;;;;4883803;29;20531;-69
2024/03/13 10:59:48;;;;;;;9.80;7.00;;;11.50;99.90;;;;;;4878266;29;20543;-69
2024/03/13 11:02:15;;;;;;;15.00;9.37;;;11.40;99.90;;;;;;4879008;29;20530;-69
2024/03/13 11:04:41;;;;;;;10.30;5.93;;;11.60;99.90;;;;;;4877952;29;20863;-69
2024/03/13 11:07:12;;;;;;;9.90;7.07;;;11.70;99.90;;;;;;4880658;29;20971;-71
2024/03/13 11:09:39;;;;;;;9.70;5.40;;;11.80;99.90;;;;;;4875344;29;20467;-69
2024/03/13 11:12:07;;;;;;;17.20;9.60;;;11.80;99.90;;;;;;4884134;29;20495;-70
2024/03/13 11:14:34;;;;;;;13.00;8.30;;;11.80;99.90;;;;;;4896394;29;20957;-70
2024/03/13 11:17:02;;;;;;;8.83;6.30;;;11.90;99.90;;;;;;4879066;29;21049;-70
2024/03/13 11:19:32;;;;;;;12.33;7.77;;;11.90;99.90;;;;;;4879012;29;20477;-70
2024/03/13 11:21:59;;;;;;;13.80;8.07;;;12.00;99.90;;;;;;4880433;29;20479;-70
2024/03/13 11:24:26;;;;;;;12.23;6.93;;;12.00;99.90;;;;;;4878007;29;20869;-71
2024/03/13 11:26:53;;;;;;;20.27;11.50;;;12.10;99.90;;;;;;4877821;29;20480;-69
2024/03/13 11:29:21;;;;;;;8.30;6.80;;;12.30;99.90;;;;;;4877124;29;20472;-69
2024/03/13 11:31:50;;;;;;;17.80;8.33;;;12.50;99.90;;;;;;4877573;29;20495;-69
2024/03/13 11:34:17;;;;;;;8.10;5.63;;;12.70;99.90;;;;;;4876922;29;20480;-69
2024/03/13 11:36:44;;;;;;;6.50;5.77;;;12.70;99.90;;;;;;4877181;29;20472;-69
2024/03/13 11:39:15;;;;;;;6.93;4.93;;;12.80;99.90;;;;;;4864451;29;20475;-69
2024/03/13 11:41:42;;;;;;;7.30;5.17;;;12.80;99.90;;;;;;4875669;29;20492;-69
2024/03/13 11:44:09;;;;;;;6.97;5.27;;;12.90;99.90;;;;;;4877895;29;20495;-69
2024/03/13 11:46:47;;;;;;;5.53;3.97;;;12.90;99.90;;;;;;4890927;29;20480;-70
2024/03/13 11:49:14;;;;;;;4.40;4.00;;;12.90;99.90;;;;;;4876683;29;20818;-70
2024/03/13 11:52:15;;;;;;;8.00;5.97;;;13.00;99.90;;;;;;4875577;29;20498;-70
2024/03/13 11:54:44;;;;;;;9.93;5.20;;;13.00;99.90;;;;;;4885640;29;20485;-70
2024/03/13 11:57:12;;;;;;;5.97;4.57;;;13.10;99.90;;;;;;4875742;29;20499;-70
2024/03/13 11:59:41;;;;;;;7.07;3.90;;;13.10;99.90;;;;;;4876819;29;20475;-70
2024/03/13 12:02:18;;;;;;;8.40;3.63;;;13.10;99.90;;;;;;4876184;29;20874;-70
2024/03/13 12:04:47;;;;;;;7.13;5.37;;;13.10;99.90;;;;;;4877502;29;20494;-71
2024/03/13 12:07:14;;;;;;;6.37;5.07;;;13.10;99.90;;;;;;4891717;29;20522;-71
2024/03/13 12:09:41;;;;;;;9.20;4.33;;;13.10;99.90;;;;;;4876076;29;20471;-71
2024/03/13 12:12:09;;;;;;;6.20;3.43;;;13.10;99.90;;;;;;4874800;29;20491;-69
2024/03/13 12:14:39;;;;;;;6.43;2.93;;;13.10;99.90;;;;;;4875921;29;20463;-69
2024/03/13 12:17:07;;;;;;;4.90;3.23;;;13.10;99.90;;;;;;4876185;29;22322;-69
2024/03/13 12:19:34;;;;;;;5.60;2.87;;;13.10;99.90;;;;;;4888982;29;20939;-70
2024/03/13 12:22:02;;;;;;;5.20;3.40;;;13.00;99.90;;;;;;4890455;29;20498;-69
2024/03/13 12:24:30;;;;;;;5.93;3.30;;;13.10;99.90;;;;;;4874572;29;20503;-69
2024/03/13 12:26:57;;;;;;;8.47;4.87;;;13.20;99.90;;;;;;4889528;29;20484;-68
2024/03/13 12:29:27;;;;;;;8.80;4.60;;;13.20;99.90;;;;;;4875684;29;20475;-69
2024/03/13 12:31:55;;;;;;;2.53;2.33;;;13.10;99.90;;;;;;4876437;29;20986;-69
2024/03/13 12:34:22;;;;;;;6.17;4.47;;;13.20;99.90;;;;;;4890936;29;20491;-69
2024/03/13 12:36:49;;;;;;;5.47;3.97;;;13.20;99.90;;;;;;4876801;29;20490;-70
2024/03/13 12:39:18;;;;;;;4.80;4.00;;;13.20;99.90;;;;;;4891393;29;20471;-69
2024/03/13 12:41:45;;;;;;;5.93;4.90;;;13.30;99.90;;;;;;4886257;29;20606;-69
2024/03/13 12:44:12;;;;;;;9.33;4.60;;;13.30;99.90;;;;;;4872661;29;20488;-69
2024/03/13 12:46:40;;;;;;;4.27;3.80;;;13.30;99.90;;;;;;4874056;29;20471;-70
2024/03/13 12:49:07;;;;;;;6.33;4.67;;;13.40;99.90;;;;;;4871856;29;20476;-69
2024/03/13 12:51:34;;;;;;;5.70;3.60;;;13.40;99.90;;;;;;4877648;29;20483;-69
2024/03/13 12:54:06;;;;;;;5.20;3.40;;;13.30;99.90;;;;;;4875284;29;20581;-68
2024/03/13 12:56:33;;;;;;;5.93;4.10;;;13.20;99.90;;;;;;4893064;29;20874;-70
2024/03/13 12:59:00;;;;;;;14.20;5.73;;;13.30;99.90;;;;;;4891458;29;20551;-69
2024/03/13 13:01:27;;;;;;;9.63;5.60;;;13.30;99.90;;;;;;4876009;29;20514;-71
2024/03/13 13:03:54;;;;;;;10.00;5.83;;;13.30;99.90;;;;;;4892580;29;20555;-70
2024/03/13 13:06:21;;;;;;;8.20;5.87;;;13.30;99.90;;;;;;4891304;29;20467;-68
2024/03/13 13:08:49;;;;;;;5.10;4.60;;;13.40;99.90;;;;;;4889288;29;20514;-69
2024/03/13 13:11:17;;;;;;;7.60;4.70;;;13.40;99.90;;;;;;4878318;29;20475;-69
2024/03/13 13:13:44;;;;;;;4.80;4.10;;;13.30;99.90;;;;;;4874901;29;20523;-69
2024/03/13 13:16:12;;;;;;;4.93;4.30;;;13.40;99.90;;;;;;4891947;29;20475;-70
2024/03/13 13:18:42;;;;;;;8.63;6.23;;;13.50;99.90;;;;;;4876280;29;20550;-69
2024/03/13 13:21:09;;;;;;;8.03;5.67;;;13.50;99.90;;;;;;4892505;29;20491;-69
2024/03/13 13:23:36;;;;;;;6.90;5.17;;;13.50;99.90;;;;;;4893580;29;22154;-70
2024/03/13 13:26:04;;;;;;;10.70;6.83;;;13.50;99.90;;;;;;4876828;29;20491;-70
2024/03/13 13:28:30;;;;;;;14.93;8.80;;;13.40;99.90;;;;;;4874929;29;20482;-70
2024/03/13 13:30:57;;;;;;;12.70;7.63;;;13.40;99.90;;;;;;4893213;29;20491;-69
2024/03/13 13:33:25;;;;;;;11.20;7.40;;;13.30;99.90;;;;;;4894054;29;20459;-69
2024/03/13 13:35:51;;;;;;;3.23;2.40;;;13.10;99.90;;;;;;4881439;29;21111;-69
2024/03/13 13:38:22;;;;;;;7.60;5.00;;;13.10;99.90;;;;;;4894924;29;20959;-69
2024/03/13 13:40:50;;;;;;;10.40;6.67;;;13.10;99.90;;;;;;4879479;29;20491;-70
2024/03/13 13:43:17;;;;;;;4.83;3.80;;;13.00;99.90;;;;;;4893767;29;20512;-70
2024/03/13 13:45:44;;;;;;;4.87;4.10;;;13.00;99.90;;;;;;4880691;29;20506;-70
2024/03/13 13:48:13;;;;;;;8.73;5.60;;;12.90;99.90;;;;;;4897533;29;20546;-70
2024/03/13 13:50:41;;;;;;;10.73;4.43;;;13.00;99.90;;;;;;4879626;29;20567;-69
2024/03/13 13:53:08;;;;;;;6.67;3.80;;;13.00;99.90;;;;;;4895420;29;20459;-69
2024/03/13 13:55:36;;;;;;;4.57;4.03;;;13.10;99.90;;;;;;4878446;29;20510;-69
2024/03/13 13:58:05;;;;;;;5.73;5.10;;;13.10;99.90;;;;;;4892301;29;20943;-69
2024/03/13 14:00:32;;;;;;;7.60;4.53;;;13.10;99.90;;;;;;4880689;29;20494;-69
2024/03/13 14:02:59;;;;;;;4.93;4.00;;;13.00;99.90;;;;;;4894314;29;20467;-69
2024/03/13 14:05:27;;;;;;;6.00;5.03;;;13.00;99.90;;;;;;4892207;29;20873;-69
2024/03/13 14:07:54;;;;;;;4.10;3.70;;;12.90;99.90;;;;;;4876334;29;20618;-69
2024/03/13 14:10:21;;;;;;;5.80;4.03;;;13.00;99.90;;;;;;4895337;29;20474;-69
2024/03/13 14:12:48;;;;;;;8.33;4.47;;;13.00;99.90;;;;;;4878549;29;20495;-69
2024/03/13 14:15:18;;;;;;;7.37;4.70;;;12.90;99.90;;;;;;4880384;29;20958;-70
2024/03/13 14:17:46;;;;;;;6.10;4.47;;;13.10;99.90;;;;;;4880663;29;20510;-69
2024/03/13 14:20:13;;;;;;;3.73;3.43;;;13.00;99.90;;;;;;4892905;29;20479;-69
2024/03/13 14:22:40;;;;;;;4.40;3.30;;;13.00;99.90;;;;;;4879250;29;20520;-69
2024/03/13 14:25:07;;;;;;;5.03;3.97;;;13.00;99.90;;;;;;4893349;29;20514;-69
2024/03/13 14:27:35;;;;;;;4.33;3.97;;;13.00;99.90;;;;;;4878826;29;21038;-69
2024/03/13 14:30:01;;;;;;;3.60;3.33;;;13.10;99.90;;;;;;4891361;29;20832;-70
2024/03/13 14:32:29;;;;;;;6.70;4.60;;;13.10;99.90;;;;;;4878119;29;20491;-70
2024/03/13 14:34:57;;;;;;;4.17;3.87;;;13.10;99.90;;;;;;4878846;29;20463;-70
2024/03/13 14:37:25;;;;;;;6.00;3.90;;;13.10;99.90;;;;;;4895947;29;20567;-69
2024/03/13 14:39:52;;;;;;;3.90;3.60;;;13.10;99.90;;;;;;4893678;29;20510;-69
2024/03/13 14:42:19;;;;;;;5.10;3.67;;;13.00;99.90;;;;;;4894807;29;20494;-70
2024/03/13 14:44:46;;;;;;;4.70;4.00;;;13.00;99.90;;;;;;4893418;29;20614;-69
2024/03/13 14:47:13;;;;;;;5.63;4.80;;;13.00;99.90;;;;;;4879744;29;20470;-69
2024/03/13 14:49:41;;;;;;;5.77;4.13;;;13.00;99.90;;;;;;4877224;29;20471;-70
2024/03/13 14:52:08;;;;;;;7.30;4.03;;;13.10;99.90;;;;;;4895079;29;20498;-70
2024/03/13 14:54:35;;;;;;;5.60;3.93;;;13.20;99.90;;;;;;4894789;29;20868;-70
2024/03/13 14:57:02;;;;;;;11.00;7.53;;;13.20;99.90;;;;;;4896728;29;20785;-69
2024/03/13 14:59:29;;;;;;;6.97;4.97;;;13.20;99.90;;;;;;4878639;29;20986;-70
2024/03/13 15:01:56;;;;;;;8.23;4.87;;;13.10;99.90;;;;;;4878403;29;20510;-70
2024/03/13 15:04:24;;;;;;;6.83;4.70;;;13.10;99.90;;;;;;4893729;29;21214;-70
2024/03/13 15:06:51;;;;;;;7.60;4.87;;;13.00;99.90;;;;;;4876444;29;20473;-70
2024/03/13 15:09:19;;;;;;;11.17;7.60;;;12.90;99.90;;;;;;4874385;29;20839;-70
2024/03/13 15:11:46;;;;;;;6.40;5.53;;;12.80;99.90;;;;;;4879987;29;20483;-70
2024/03/13 15:14:13;;;;;;;9.30;7.40;;;12.80;99.90;;;;;;4876610;29;20553;-70
2024/03/13 15:16:39;;;;;;;7.10;5.33;;;12.50;99.90;;;;;;4893097;29;20471;-71
2024/03/13 15:19:06;;;;;;;7.17;5.10;;;12.50;99.90;;;;;;4893180;29;20472;-71
2024/03/13 15:21:34;;;;;;;5.80;4.63;;;12.40;99.90;;;;;;4894627;29;20550;-71
2024/03/13 15:24:00;;;;;;;10.23;6.43;;;12.40;99.90;;;;;;4871716;29;20514;-71
2024/03/13 15:26:28;;;;;;;6.00;4.60;;;12.30;99.90;;;;;;4893265;29;20502;-70
2024/03/13 15:28:55;;;;;;;12.50;7.80;;;12.30;99.90;;;;;;4876532;29;20487;-71
2024/03/13 15:31:21;;;;;;;13.87;9.03;;;12.30;99.90;;;;;;4891913;29;20487;-69
2024/03/13 15:33:48;;;;;;;8.10;6.60;;;12.20;99.90;;;;;;4877637;29;20962;-70
2024/03/13 15:36:17;;;;;;;12.40;7.50;;;12.20;99.90;;;;;;4877958;29;20467;-70
2024/03/13 15:38:44;;;;;;;8.67;6.57;;;12.20;99.90;;;;;;4891700;29;20479;-69
2024/03/13 15:41:11;;;;;;;16.93;7.83;;;12.10;99.90;;;;;;4891969;29;20491;-69
2024/03/13 15:43:38;;;;;;;9.17;6.17;;;12.10;99.90;;;;;;4876108;29;20539;-70
2024/03/13 15:46:05;;;;;;;7.70;5.50;;;12.10;99.90;;;;;;4878457;29;20507;-70
2024/03/13 15:48:32;;;;;;;12.60;6.20;;;12.10;99.90;;;;;;4875917;29;20475;-70
2024/03/13 15:50:59;;;;;;;9.67;5.93;;;12.00;99.90;;;;;;4877224;29;20494;-70
2024/03/13 15:53:26;;;;;;;11.57;5.60;;;12.00;99.90;;;;;;4892493;29;20511;-70
2024/03/13 15:55:53;;;;;;;12.63;7.10;;;12.00;99.90;;;;;;4871063;29;20522;-71
2024/03/13 15:58:20;;;;;;;9.57;6.77;;;11.90;99.90;;;;;;4891266;29;20471;-70
2024/03/13 16:00:48;;;;;;;8.00;5.93;;;11.90;99.90;;;;;;4891169;29;20502;-70
2024/03/13 16:03:15;;;;;;;10.30;6.13;;;11.90;99.90;;;;;;4893722;29;20507;-71
2024/03/13 16:05:42;;;;;;;15.57;10.30;;;11.80;99.90;;;;;;4890336;29;20484;-69
2024/03/13 16:08:10;;;;;;;21.37;10.37;;;11.70;99.90;;;;;;4875145;29;20479;-70
2024/03/13 16:10:37;;;;;;;19.20;7.80;;;11.60;99.90;;;;;;4875372;29;20550;-70
2024/03/13 16:13:04;;;;;;;7.47;6.53;;;11.60;99.90;;;;;;4877246;29;20486;-70
2024/03/13 16:15:34;;;;;;;8.67;7.20;;;11.60;99.90;;;;;;4875776;29;20479;-70
2024/03/13 16:18:01;;;;;;;14.43;8.07;;;11.50;99.90;;;;;;4877068;29;20966;-70
2024/03/13 16:20:28;;;;;;;8.83;6.33;;;11.60;99.90;;;;;;4889194;29;20477;-70
2024/03/13 16:22:57;;;;;;;8.73;6.27;;;11.60;99.90;;;;;;4875702;29;20471;-71
2024/03/13 16:25:24;;;;;;;7.50;5.40;;;11.60;99.90;;;;;;4875640;29;20594;-70
2024/03/13 16:27:51;;;;;;;4.97;4.40;;;11.60;99.90;;;;;;4878063;29;20472;-71
2024/03/13 16:30:18;;;;;;;10.03;6.17;;;11.50;99.90;;;;;;4877681;29;20503;-71
2024/03/13 16:32:45;;;;;;;14.60;7.13;;;11.50;99.90;;;;;;4877493;29;20531;-70
2024/03/13 16:35:12;;;;;;;5.00;4.10;;;11.40;99.90;;;;;;4877061;29;20483;-71
2024/03/13 16:37:39;;;;;;;5.67;5.10;;;11.20;99.90;;;;;;4875846;29;20475;-71
2024/03/13 16:40:07;;;;;;;8.37;4.60;;;11.10;99.90;;;;;;4891712;29;21030;-71
2024/03/13 16:42:34;;;;;;;7.40;4.90;;;11.00;99.90;;;;;;4878143;29;20487;-71
2024/03/13 16:45:01;;;;;;;8.07;4.67;;;11.00;99.90;;;;;;4876667;29;20975;-70
2024/03/13 16:47:30;;;;;;;7.60;5.60;;;10.90;99.90;;;;;;4874778;29;20468;-71
2024/03/13 16:49:57;;;;;;;6.10;5.27;;;10.90;99.90;;;;;;4875202;29;20670;-71
2024/03/13 16:52:24;;;;;;;6.57;5.07;;;10.90;99.90;;;;;;4890980;29;20494;-71
2024/03/13 16:54:53;;;;;;;9.13;4.27;;;10.80;99.90;;;;;;4874997;29;20230;-70
2024/03/13 16:57:20;;;;;;;8.98;4.28;;;10.80;99.90;;;;;;4879266;29;20462;-71
2024/03/13 16:59:47;;;;;;;5.37;4.20;;;10.70;99.90;;;;;;4878126;29;20210;-70
2024/03/13 17:02:14;;;;;;;7.93;6.00;;;10.80;99.90;;;;;;4875475;29;20602;-71
2024/03/13 17:04:41;;;;;;;10.67;5.23;;;10.80;99.90;;;;;;4876162;29;20207;-70
2024/03/13 17:07:09;;;;;;;5.80;4.70;;;10.70;99.90;;;;;;4877162;29;20864;-70
2024/03/13 17:09:35;;;;;;;8.35;6.10;;;10.60;99.90;;;;;;4880634;29;20490;-70
2024/03/13 17:12:02;;;;;;;8.35;5.07;;;10.60;99.90;;;;;;4881019;29;20831;-70
2024/03/13 17:14:29;;;;;;;7.18;4.78;;;10.60;99.90;;;;;;4879915;29;20764;-71
2024/03/13 17:16:56;;;;;;;11.00;7.30;;;10.60;99.90;;;;;;4895581;29;20207;-70
2024/03/13 17:19:23;;;;;;;8.38;5.38;;;10.60;99.90;;;;;;4891157;29;20471;-70
2024/03/13 17:21:50;;;;;;;9.40;4.72;;;10.60;99.90;;;;;;4876985;29;20603;-70
2024/03/13 17:24:18;;;;;;;7.05;4.50;;;10.60;99.90;;;;;;4877599;29;20685;-71
2024/03/13 17:26:44;;;;;;;8.60;5.83;;;10.60;99.90;;;;;;4878727;29;20232;-70
2024/03/13 17:29:11;;;;;;;12.98;6.40;;;10.60;99.90;;;;;;4894681;29;20476;-70
2024/03/13 17:31:38;;;;;;;7.90;5.07;;;10.50;99.90;;;;;;4880367;29;20231;-70
2024/03/13 17:34:05;;;;;;;7.20;5.38;;;10.50;99.90;;;;;;4894966;29;20218;-70
2024/03/13 17:36:32;;;;;;;9.40;4.78;;;10.50;99.90;;;;;;4881300;29;20630;-70
2024/03/13 17:39:00;;;;;;;8.85;6.00;;;10.40;99.90;;;;;;4879944;29;20242;-70
2024/03/13 17:41:28;;;;;;;8.40;5.30;;;10.40;99.90;;;;;;4877376;29;20230;-71
2024/03/13 17:43:55;;;;;;;4.60;4.05;;;10.40;99.90;;;;;;4894574;29;20293;-71
2024/03/13 17:46:22;;;;;;;9.88;5.45;;;10.30;99.90;;;;;;4881535;29;20232;-71